Wetterstation Vordersexau
Wetterdaten: Woche 12.03.18 - 18.03.18 (KW11)
Datum Zeit Temp. A. Feuchte A. Luftdruck Regen Wind Richtung Taupunkt Windchill Windben
12.03.2018 00:00 7,5 C 83 % 992,7 hPa 0,0 l/m 0,0 km/h O-NO 4,8 C 7,5 C 0,0 km/h
12.03.2018 01:00 7,6 C 82 % 992,9 hPa 0,0 l/m 0,0 km/h O 4,7 C 7,6 C 0,0 km/h
12.03.2018 02:00 6,8 C 82 % 993,2 hPa 0,0 l/m 0,0 km/h O-NO 3,9 C 6,8 C 0,0 km/h
12.03.2018 03:00 6,6 C 81 % 992,8 hPa 0,0 l/m 0,0 km/h W 3,6 C 6,6 C 0,0 km/h
12.03.2018 04:00 7,3 C 78 % 993,1 hPa 0,0 l/m 0,0 km/h S-SW 3,7 C 7,3 C 0,0 km/h
12.03.2018 05:00 9,5 C 82 % 993,5 hPa 0,0 l/m 27,2 km/h S 6,6 C 0,6 C 15,1 km/h
12.03.2018 06:00 8,9 C 83 % 993,6 hPa 0,0 l/m 22,0 km/h NO 6,2 C 1,2 C 12,2 km/h
12.03.2018 07:00 8,4 C 85 % 994,3 hPa 0,5 l/m 0,0 km/h SW 6,0 C 8,4 C 0,0 km/h
12.03.2018 08:00 10,9 C 77 % 994,9 hPa 0,0 l/m 24,0 km/h S-SW 7,0 C 3,3 C 13,3 km/h
12.03.2018 09:00 12,1 C 73 % 995,4 hPa 0,0 l/m 24,0 km/h S-SW 7,4 C 4,9 C 13,3 km/h
12.03.2018 10:00 11,9 C 73 % 996,0 hPa 0,0 l/m 24,0 km/h SW 7,2 C 4,7 C 13,3 km/h
12.03.2018 11:00 12,4 C 71 % 996,3 hPa 0,0 l/m 26,6 km/h SW 7,3 C 4,7 C 14,8 km/h
12.03.2018 12:00 13,9 C 67 % 996,6 hPa 0,0 l/m 31,8 km/h SW 7,9 C 5,8 C 17,6 km/h
12.03.2018 13:00 12,4 C 73 % 996,7 hPa 0,0 l/m 33,0 km/h W-SW 7,7 C 3,5 C 18,4 km/h
12.03.2018 14:00 15,4 C 59 % 996,8 hPa 0,0 l/m 36,9 km/h SW 7,4 C 7,3 C 20,5 km/h
12.03.2018 15:00 13,4 C 63 % 996,5 hPa 0,0 l/m 31,8 km/h S-SW 6,5 C 5,1 C 17,6 km/h
12.03.2018 16:00 13,0 C 65 % 997,2 hPa 0,0 l/m 18,1 km/h S 6,6 C 7,7 C 10,1 km/h
12.03.2018 17:00 10,9 C 71 % 997,3 hPa 0,0 l/m 0,0 km/h S-SW 5,9 C 10,9 C 0,0 km/h
12.03.2018 18:00 8,1 C 83 % 998,8 hPa 1,0 l/m 6,5 km/h S-SW 5,4 C 8,0 C 3,6 km/h
12.03.2018 19:00 7,5 C 85 % 999,7 hPa 1,0 l/m 0,0 km/h S 5,1 C 7,5 C 0,0 km/h
12.03.2018 20:00 7,3 C 85 % 999,8 hPa 1,0 l/m 7,1 km/h W-SW 4,9 C 6,7 C 4,0 km/h
12.03.2018 21:00 8,3 C 85 % 1000,4 hPa 0,0 l/m 23,3 km/h S-SW 5,9 C 0,0 C 13,0 km/h
12.03.2018 22:00 8,9 C 83 % 1000,8 hPa 0,0 l/m 27,9 km/h S-SW 6,2 C -0,4 C 15,5 km/h
12.03.2018 23:00 8,8 C 82 % 1001,1 hPa 0,0 l/m 24,6 km/h SW 5,9 C 0,3 C 13,7 km/h
13.03.2018 00:00 8,4 C 84 % 1002,0 hPa 0,0 l/m 25,3 km/h S 5,9 C -0,4 C 14,0 km/h
13.03.2018 01:00 7,5 C 84 % 1002,6 hPa 0,0 l/m 13,6 km/h SW 5,0 C 2,8 C 7,6 km/h
13.03.2018 02:00 7,8 C 80 % 1002,7 hPa 0,0 l/m 33,0 km/h S-SW 4,6 C -3,1 C 18,4 km/h
13.03.2018 03:00 7,5 C 79 % 1002,4 hPa 0,0 l/m 22,0 km/h W-SW 4,1 C -0,6 C 12,2 km/h
13.03.2018 04:00 7,3 C 79 % 1003,0 hPa 0,0 l/m 31,8 km/h SW 3,9 C -3,6 C 17,6 km/h
13.03.2018 05:00 7,0 C 78 % 1003,1 hPa 0,0 l/m 62,2 km/h S-SW 3,4 C -8,0 C 34,6 km/h
13.03.2018 06:00 6,7 C 78 % 1003,4 hPa 0,0 l/m 81,6 km/h S-SW 3,1 C -9,2 C 45,4 km/h
13.03.2018 07:00 6,8 C 78 % 1003,9 hPa 0,0 l/m 38,9 km/h W-SW 3,2 C -5,7 C 21,6 km/h
13.03.2018 08:00 7,2 C 77 % 1004,5 hPa 0,0 l/m 44,1 km/h S-SW 3,4 C -5,9 C 24,5 km/h
13.03.2018 09:00 6,8 C 82 % 1004,8 hPa 0,5 l/m 24,6 km/h SW 3,9 C -2,4 C 13,7 km/h
13.03.2018 10:00 7,9 C 76 % 1005,4 hPa 0,0 l/m 39,5 km/h S 3,9 C -4,1 C 22,0 km/h
13.03.2018 11:00 8,4 C 76 % 1005,4 hPa 0,0 l/m 42,8 km/h SW 4,4 C -3,9 C 23,8 km/h
13.03.2018 12:00 9,5 C 74 % 1005,5 hPa 0,0 l/m 25,3 km/h SW 5,1 C 1,1 C 14,0 km/h
13.03.2018 13:00 8,8 C 76 % 1005,8 hPa 0,0 l/m 35,6 km/h S-SW 4,8 C -2,2 C 19,8 km/h
13.03.2018 14:00 8,3 C 78 % 1006,1 hPa 0,0 l/m 27,9 km/h S-SW 4,7 C -1,2 C 15,5 km/h
13.03.2018 15:00 7,7 C 81 % 1006,5 hPa 0,0 l/m 26,6 km/h W-SW 4,7 C -1,7 C 14,8 km/h
13.03.2018 16:00 7,9 C 81 % 1006,9 hPa 0,0 l/m 36,3 km/h W 4,8 C -3,6 C 20,2 km/h
13.03.2018 17:00 6,9 C 85 % 1007,9 hPa 0,0 l/m 0,0 km/h S-SW 4,6 C 6,9 C 0,0 km/h
13.03.2018 18:00 6,9 C 85 % 1008,5 hPa 0,5 l/m 27,9 km/h W-SW 4,6 C -3,2 C 15,5 km/h
13.03.2018 19:00 6,5 C 85 % 1009,3 hPa 0,5 l/m 9,7 km/h W-SW 4,2 C 3,9 C 5,4 km/h
13.03.2018 20:00 6,3 C 84 % 1009,5 hPa 1,6 l/m 7,1 km/h W-SW 3,8 C 5,7 C 4,0 km/h
13.03.2018 21:00 6,3 C 82 % 1010,1 hPa 0,5 l/m 14,3 km/h W-SW 3,5 C 1,0 C 7,9 km/h
13.03.2018 22:00 6,3 C 83 % 1010,5 hPa 0,5 l/m 0,0 km/h W-SW 3,6 C 6,3 C 0,0 km/h
13.03.2018 23:00 6,5 C 85 % 1010,8 hPa 0,0 l/m 1,3 km/h W 4,2 C 6,5 C 0,7 km/h
14.03.2018 00:00 6,3 C 84 % 1011,2 hPa 0,0 l/m 0,0 km/h W 3,8 C 6,3 C 0,0 km/h
14.03.2018 01:00 6,2 C 85 % 1011,6 hPa 0,0 l/m 1,3 km/h SW 3,9 C 6,2 C 0,7 km/h
14.03.2018 02:00 6,0 C 85 % 1011,7 hPa 0,0 l/m 0,0 km/h S 3,7 C 6,0 C 0,0 km/h
14.03.2018 03:00 5,6 C 85 % 1011,6 hPa 0,0 l/m 0,0 km/h S 3,3 C 5,6 C 0,0 km/h
14.03.2018 04:00 5,3 C 85 % 1011,3 hPa 0,0 l/m 0,0 km/h S 3,0 C 5,3 C 0,0 km/h
14.03.2018 05:00 4,9 C 84 % 1011,3 hPa 0,0 l/m 0,0 km/h S 2,4 C 4,9 C 0,0 km/h
14.03.2018 06:00 4,1 C 84 % 1011,4 hPa 0,0 l/m 0,0 km/h S 1,6 C 4,1 C 0,0 km/h
14.03.2018 07:00 4,5 C 83 % 1011,6 hPa 0,0 l/m 0,0 km/h SO 1,9 C 4,5 C 0,0 km/h
14.03.2018 08:00 9,5 C 84 % 1011,5 hPa 0,0 l/m 4,5 km/h NO 6,9 C 9,5 C 2,5 km/h
14.03.2018 09:00 13,1 C 73 % 1010,9 hPa 0,0 l/m 0,0 km/h O-NO 8,4 C 13,1 C 0,0 km/h
14.03.2018 10:00 16,2 C 61 % 1010,6 hPa 0,0 l/m 0,0 km/h W-SW 8,7 C 16,2 C 0,0 km/h
14.03.2018 11:00 17,9 C 49 % 1010,1 hPa 0,0 l/m 0,0 km/h N 7,0 C 17,9 C 0,0 km/h
14.03.2018 12:00 17,4 C 48 % 1008,8 hPa 0,0 l/m 0,0 km/h N 6,3 C 17,4 C 0,0 km/h
14.03.2018 13:00 17,8 C 45 % 1007,1 hPa 0,0 l/m 20,7 km/h W-SW 5,7 C 13,2 C 11,5 km/h
14.03.2018 14:00 21,6 C 39 % 1006,1 hPa 0,0 l/m 0,0 km/h W-SW 7,0 C 21,6 C 0,0 km/h
14.03.2018 15:00 23,2 C 35 % 1004,9 hPa 0,0 l/m 11,0 km/h N-NW 6,9 C 21,9 C 6,1 km/h
14.03.2018 16:00 19,6 C 39 % 1004,5 hPa 0,0 l/m 14,3 km/h NW 5,3 C 16,9 C 7,9 km/h
14.03.2018 17:00 14,4 C 51 % 1003,9 hPa 0,0 l/m 0,0 km/h N-NO 4,4 C 14,4 C 0,0 km/h
14.03.2018 18:00 8,6 C 65 % 1003,6 hPa 0,0 l/m 0,0 km/h O 2,4 C 8,6 C 0,0 km/h
14.03.2018 19:00 6,6 C 76 % 1003,4 hPa 0,0 l/m 0,0 km/h SO 2,7 C 6,6 C 0,0 km/h
14.03.2018 20:00 4,9 C 78 % 1002,7 hPa 0,0 l/m 0,0 km/h NO 1,4 C 4,9 C 0,0 km/h
14.03.2018 21:00 3,6 C 81 % 1001,6 hPa 0,0 l/m 0,0 km/h N-NO 0,7 C 3,6 C 0,0 km/h
14.03.2018 22:00 4,6 C 78 % 1000,9 hPa 0,0 l/m 0,0 km/h N-NO 1,1 C 4,6 C 0,0 km/h
14.03.2018 23:00 3,2 C 78 % 999,9 hPa 0,0 l/m 0,0 km/h N -0,3 C 3,2 C 0,0 km/h
15.03.2018 00:00 2,1 C 81 % 999,5 hPa 0,0 l/m 0,0 km/h W -0,8 C 2,1 C 0,0 km/h
15.03.2018 01:00 0,8 C 82 % 999,4 hPa 0,0 l/m 0,0 km/h W -1,9 C 0,8 C 0,0 km/h
15.03.2018 02:00 0,9 C 84 % 998,8 hPa 0,0 l/m 0,0 km/h W -1,5 C 0,9 C 0,0 km/h
15.03.2018 03:00 0,9 C 85 % 998,0 hPa 0,0 l/m 0,0 km/h W-NW -1,3 C 0,9 C 0,0 km/h
15.03.2018 04:00 0,7 C 86 % 997,4 hPa 0,0 l/m 0,0 km/h NW -1,4 C 0,7 C 0,0 km/h
15.03.2018 05:00 0,9 C 86 % 996,6 hPa 0,0 l/m 0,0 km/h W -1,2 C 0,9 C 0,0 km/h
15.03.2018 06:00 0,4 C 86 % 996,1 hPa 0,0 l/m 0,0 km/h W -1,7 C 0,4 C 0,0 km/h
15.03.2018 07:00 1,2 C 85 % 995,4 hPa 0,0 l/m 0,0 km/h W-SW -1,0 C 1,2 C 0,0 km/h
15.03.2018 08:00 3,2 C 85 % 995,6 hPa 0,0 l/m 0,0 km/h W 0,9 C 3,2 C 0,0 km/h
15.03.2018 09:00 4,8 C 86 % 995,0 hPa 0,0 l/m 0,0 km/h W-SW 2,7 C 4,8 C 0,0 km/h
15.03.2018 10:00 4,9 C 84 % 995,3 hPa 0,0 l/m 0,0 km/h N 2,4 C 4,9 C 0,0 km/h
15.03.2018 11:00 5,6 C 84 % 993,4 hPa 0,0 l/m 0,0 km/h N 3,1 C 5,6 C 0,0 km/h
15.03.2018 12:00 6,4 C 82 % 992,5 hPa 0,0 l/m 3,9 km/h W-SW 3,6 C 6,4 C 2,2 km/h
15.03.2018 13:00 6,9 C 85 % 990,3 hPa 0,5 l/m 0,0 km/h W-SW 4,6 C 6,9 C 0,0 km/h
15.03.2018 14:00 6,4 C 84 % 992,1 hPa 0,0 l/m 29,2 km/h SW 3,9 C -4,2 C 16,2 km/h
15.03.2018 15:00 7,6 C 82 % 993,3 hPa 0,0 l/m 0,0 km/h S-SO 4,7 C 7,6 C 0,0 km/h
15.03.2018 16:00 7,4 C 82 % 993,2 hPa 0,0 l/m 0,0 km/h S-SO 4,5 C 7,4 C 0,0 km/h
15.03.2018 17:00 7,0 C 83 % 993,2 hPa 0,0 l/m 0,0 km/h S 4,3 C 7,0 C 0,0 km/h
15.03.2018 18:00 7,1 C 84 % 994,6 hPa 0,0 l/m 0,6 km/h S-SW 4,6 C 7,1 C 0,4 km/h
15.03.2018 19:00 8,6 C 79 % 995,9 hPa 0,0 l/m 5,8 km/h S-SO 5,2 C 8,6 C 3,2 km/h
15.03.2018 20:00 7,9 C 81 % 996,4 hPa 0,0 l/m 7,1 km/h S-SW 4,8 C 7,3 C 4,0 km/h
15.03.2018 21:00 8,1 C 80 % 996,7 hPa 0,0 l/m 13,6 km/h S-SO 4,9 C 3,5 C 7,6 km/h
15.03.2018 22:00 8,3 C 78 % 997,1 hPa 0,0 l/m 13,0 km/h SO 4,7 C 4,0 C 7,2 km/h
15.03.2018 23:00 7,6 C 79 % 997,3 hPa 0,0 l/m 0,0 km/h O 4,2 C 7,6 C 0,0 km/h
16.03.2018 00:00 5,5 C 83 % 997,5 hPa 0,0 l/m 0,0 km/h NO 2,8 C 5,5 C 0,0 km/h
16.03.2018 01:00 4,8 C 85 % 998,4 hPa 0,0 l/m 1,3 km/h NO 2,5 C 4,8 C 0,7 km/h
16.03.2018 02:00 4,1 C 85 % 998,2 hPa 0,0 l/m 0,0 km/h O 1,8 C 4,1 C 0,0 km/h
16.03.2018 03:00 3,8 C 85 % 998,1 hPa 0,0 l/m 0,0 km/h S 1,5 C 3,8 C 0,0 km/h
16.03.2018 04:00 6,8 C 85 % 998,3 hPa 0,0 l/m 5,2 km/h S 4,5 C 6,8 C 2,9 km/h
16.03.2018 05:00 7,5 C 81 % 998,7 hPa 0,0 l/m 5,8 km/h S-SW 4,5 C 7,5 C 3,2 km/h
16.03.2018 06:00 7,1 C 84 % 999,0 hPa 0,5 l/m 0,0 km/h S-SW 4,6 C 7,1 C 0,0 km/h
16.03.2018 07:00 7,9 C 83 % 999,7 hPa 0,0 l/m 18,8 km/h SW 5,2 C 1,0 C 10,4 km/h
16.03.2018 08:00 9,3 C 80 % 1000,0 hPa 0,0 l/m 18,8 km/h SW 6,0 C 2,8 C 10,4 km/h
16.03.2018 09:00 9,8 C 78 % 1000,5 hPa 0,0 l/m 18,8 km/h W-SW 6,1 C 3,4 C 10,4 km/h
16.03.2018 10:00 9,8 C 80 % 1000,7 hPa 0,0 l/m 23,3 km/h W-SW 6,5 C 2,0 C 13,0 km/h
16.03.2018 11:00 12,1 C 71 % 1000,8 hPa 0,0 l/m 25,9 km/h SW 7,0 C 4,5 C 14,4 km/h
16.03.2018 12:00 13,8 C 68 % 1000,9 hPa 0,0 l/m 20,1 km/h S 8,0 C 8,2 C 11,2 km/h
16.03.2018 13:00 17,2 C 56 % 1000,1 hPa 0,0 l/m 23,3 km/h N 8,3 C 11,9 C 13,0 km/h
16.03.2018 14:00 14,1 C 57 % 1000,2 hPa 0,0 l/m 0,0 km/h W 5,7 C 14,1 C 0,0 km/h
16.03.2018 15:00 21,1 C 42 % 999,6 hPa 0,0 l/m 0,0 km/h W-SW 7,7 C 21,1 C 0,0 km/h
16.03.2018 16:00 19,8 C 43 % 999,1 hPa 0,0 l/m 0,0 km/h N-NW 6,9 C 19,8 C 0,0 km/h
16.03.2018 17:00 15,4 C 48 % 999,1 hPa 0,0 l/m 0,0 km/h O-SO 4,4 C 15,4 C 0,0 km/h
16.03.2018 18:00 8,7 C 67 % 999,6 hPa 0,0 l/m 0,0 km/h O-NO 2,9 C 8,7 C 0,0 km/h
16.03.2018 19:00 6,5 C 75 % 999,9 hPa 0,0 l/m 0,0 km/h O-NO 2,4 C 6,5 C 0,0 km/h
16.03.2018 20:00 5,4 C 81 % 999,8 hPa 0,0 l/m 0,0 km/h O-NO 2,4 C 5,4 C 0,0 km/h
16.03.2018 21:00 4,6 C 83 % 999,5 hPa 0,0 l/m 0,0 km/h O-SO 2,0 C 4,6 C 0,0 km/h
16.03.2018 22:00 4,1 C 84 % 999,5 hPa 0,0 l/m 0,0 km/h SO 1,6 C 4,1 C 0,0 km/h
16.03.2018 23:00 3,6 C 85 % 999,1 hPa 0,0 l/m 20,1 km/h O 1,3 C -5,0 C 11,2 km/h
17.03.2018 00:00 3,3 C 85 % 998,5 hPa 0,0 l/m 0,0 km/h O-NO 1,0 C 3,3 C 0,0 km/h
17.03.2018 01:00 2,5 C 85 % 998,1 hPa 0,0 l/m 0,0 km/h O-NO 0,2 C 2,5 C 0,0 km/h
17.03.2018 02:00 1,3 C 85 % 997,3 hPa 0,0 l/m 0,0 km/h O-NO -0,9 C 1,3 C 0,0 km/h
17.03.2018 03:00 0,9 C 86 % 996,8 hPa 0,0 l/m 0,0 km/h O-NO -1,2 C 0,9 C 0,0 km/h
17.03.2018 04:00 1,1 C 85 % 996,6 hPa 0,0 l/m 0,0 km/h S -1,1 C 1,1 C 0,0 km/h
17.03.2018 05:00 1,2 C 85 % 996,2 hPa 0,0 l/m 0,0 km/h S -1,0 C 1,2 C 0,0 km/h
17.03.2018 06:00 1,7 C 84 % 995,7 hPa 0,0 l/m 0,0 km/h S-SO -0,7 C 1,7 C 0,0 km/h
17.03.2018 07:00 2,4 C 83 % 995,2 hPa 0,0 l/m 0,0 km/h S-SO -0,2 C 2,4 C 0,0 km/h
17.03.2018 08:00 3,4 C 80 % 994,8 hPa 0,0 l/m 0,0 km/h SW 0,3 C 3,4 C 0,0 km/h
17.03.2018 09:00 4,9 C 82 % 994,6 hPa 0,0 l/m 0,0 km/h S 2,1 C 4,9 C 0,0 km/h
17.03.2018 10:00 6,8 C 85 % 993,7 hPa 0,0 l/m 0,0 km/h S-SO 4,5 C 6,8 C 0,0 km/h
17.03.2018 11:00 10,2 C 78 % 993,4 hPa 0,0 l/m 0,0 km/h W-SW 6,5 C 10,2 C 0,0 km/h
17.03.2018 12:00 8,5 C 77 % 992,9 hPa 0,0 l/m 13,0 km/h W-NW 4,7 C 4,3 C 7,2 km/h
17.03.2018 13:00 8,1 C 77 % 992,3 hPa 0,0 l/m 0,0 km/h N 4,3 C 8,1 C 0,0 km/h
17.03.2018 14:00 7,9 C 75 % 992,2 hPa 0,0 l/m 0,0 km/h NO 3,7 C 7,9 C 0,0 km/h
17.03.2018 15:00 6,3 C 76 % 992,3 hPa 0,0 l/m 0,0 km/h NO 2,4 C 6,3 C 0,0 km/h
17.03.2018 16:00 5,0 C 78 % 992,3 hPa 0,0 l/m 0,6 km/h N 1,5 C 5,0 C 0,4 km/h
17.03.2018 17:00 3,9 C 80 % 992,9 hPa 0,0 l/m 7,1 km/h N-NO 0,8 C 3,3 C 4,0 km/h
17.03.2018 18:00 3,4 C 80 % 993,6 hPa 0,0 l/m 0,0 km/h N 0,3 C 3,4 C 0,0 km/h
17.03.2018 19:00 3,1 C 79 % 994,1 hPa 0,0 l/m 0,0 km/h W-SW -0,2 C 3,1 C 0,0 km/h
17.03.2018 20:00 1,3 C 83 % 994,9 hPa 0,0 l/m 0,0 km/h W-SW -1,3 C 1,3 C 0,0 km/h
17.03.2018 21:00 0,6 C 85 % 995,5 hPa 0,0 l/m 0,0 km/h W-SW -1,6 C 0,6 C 0,0 km/h
17.03.2018 22:00 0,4 C 86 % 995,7 hPa 0,0 l/m 0,0 km/h N-NW -1,7 C 0,4 C 0,0 km/h
17.03.2018 23:00 0,4 C 86 % 995,7 hPa 0,0 l/m 0,0 km/h O -1,7 C 0,4 C 0,0 km/h
18.03.2018 00:00 0,1 C 86 % 995,6 hPa 0,0 l/m 0,0 km/h O -2,0 C 0,1 C 0,0 km/h
18.03.2018 01:00 0,1 C 86 % 995,7 hPa 0,0 l/m 0,0 km/h O -2,0 C 0,1 C 0,0 km/h
18.03.2018 02:00 -0,2 C 86 % 995,4 hPa 0,0 l/m 0,0 km/h O -2,3 C -0,2 C 0,0 km/h
18.03.2018 03:00 -0,6 C 86 % 995,2 hPa 0,0 l/m 0,0 km/h O -2,6 C -0,6 C 0,0 km/h
18.03.2018 04:00 -1,2 C 85 % 995,4 hPa 0,0 l/m 0,0 km/h O -3,4 C -1,2 C 0,0 km/h
18.03.2018 05:00 -1,9 C 85 % 995,5 hPa 0,0 l/m 0,0 km/h O -4,1 C -1,9 C 0,0 km/h
18.03.2018 06:00 -2,1 C 85 % 996,1 hPa 0,0 l/m 0,0 km/h O -4,3 C -2,1 C 0,0 km/h
18.03.2018 07:00 -1,8 C 85 % 996,8 hPa 0,0 l/m 0,0 km/h O -4,0 C -1,8 C 0,0 km/h
18.03.2018 08:00 -1,1 C 86 % 997,1 hPa 0,0 l/m 0,0 km/h O -3,1 C -1,1 C 0,0 km/h
18.03.2018 09:00 -0,4 C 86 % 997,7 hPa 0,0 l/m 0,0 km/h O -2,4 C -0,4 C 0,0 km/h
18.03.2018 10:00 0,9 C 84 % 997,9 hPa 0,0 l/m 3,9 km/h O -1,5 C 0,9 C 2,2 km/h
18.03.2018 11:00 1,8 C 83 % 998,1 hPa 0,0 l/m 0,0 km/h O -0,8 C 1,8 C 0,0 km/h
18.03.2018 12:00 2,4 C 82 % 998,3 hPa 1,0 l/m 0,0 km/h S-SW -0,4 C 2,4 C 0,0 km/h
18.03.2018 13:00 2,6 C 82 % 998,4 hPa 1,0 l/m 0,0 km/h S-SW -0,2 C 2,6 C 0,0 km/h
18.03.2018 14:00 2,8 C 81 % 998,4 hPa 1,0 l/m 11,0 km/h S-SO -0,1 C -1,1 C 6,1 km/h
18.03.2018 15:00 2,1 C 83 % 998,9 hPa 0,0 l/m 0,0 km/h S-SO -0,5 C 2,1 C 0,0 km/h
18.03.2018 16:00 1,9 C 83 % 999,4 hPa 0,0 l/m 5,2 km/h S-SO -0,7 C 1,9 C 2,9 km/h
18.03.2018 17:00 1,4 C 84 % 999,9 hPa 0,0 l/m 8,4 km/h S -1,0 C -0,5 C 4,7 km/h
18.03.2018 18:00 1,0 C 85 % 1000,9 hPa 0,0 l/m 0,0 km/h S-SW -1,2 C 1,0 C 0,0 km/h
18.03.2018 19:00 0,8 C 85 % 1001,8 hPa 0,0 l/m 0,0 km/h S-SW -1,4 C 0,8 C 0,0 km/h
18.03.2018 20:00 0,7 C 85 % 1001,9 hPa 0,0 l/m 0,0 km/h N-NW -1,5 C 0,7 C 0,0 km/h
18.03.2018 21:00 0,8 C 85 % 1002,3 hPa 0,0 l/m 0,0 km/h N -1,4 C 0,8 C 0,0 km/h
18.03.2018 22:00 0,9 C 83 % 1002,6 hPa 0,0 l/m 0,0 km/h SW -1,7 C 0,9 C 0,0 km/h
18.03.2018 23:00 0,6 C 85 % 1002,7 hPa 0,0 l/m 0,0 km/h SW -1,6 C 0,6 C 0,0 km/h
Min-Datum _ 18.03.18 14.03.18 15.03.18 - 12.03.18 - 18.03.18 13.03.18 12.03.18
_ Min-Zeit 06:53 15:53 13:53 - 00:53 - 06:53 06:53 00:53
Minimum _ -2,1 C 35 % 990,3 hPa - 0,0 km/h - -4,3 C -9,2 C 0,0 km/h
Max-Datum _ 14.03.18 15.03.18 14.03.18 13.03.18 13.03.18 - 14.03.18 14.03.18 13.03.18
_ Max-Zeit 15:53 04:53 02:53 20:53 06:53 - 10:53 15:53 06:53
Maximum _ 23,2 C 86 % 1011,7 hPa 1,6 l/m 81,6 km/h
S-SW
- 8,7 C 21,9 C 45,4 km/h
S-SW
Durchschnitt _ 6,5 C 79 % 999,7 hPa #11,9 l/m 8,4 km/h W-SW 2,9 C 4,1 C 4,7 km/h
www.sexauwetter.de